sensor_id;sensor_type;location;lat;lon;timestamp;P1;durP1;ratioP1;P2;durP2;ratioP2
2748;SDS011;1382;52.142;11.618;2022-07-23T00:01:19;9.63;;;8.63;;
2748;SDS011;1382;52.142;11.618;2022-07-23T00:03:47;12.90;;;9.37;;
2748;SDS011;1382;52.142;11.618;2022-07-23T00:06:15;11.93;;;8.00;;
2748;SDS011;1382;52.142;11.618;2022-07-23T00:08:42;8.47;;;7.53;;
2748;SDS011;1382;52.142;11.618;2022-07-23T00:11:10;10.90;;;7.27;;
2748;SDS011;1382;52.142;11.618;2022-07-23T00:13:37;14.63;;;9.60;;
2748;SDS011;1382;52.142;11.618;2022-07-23T00:16:04;12.03;;;8.43;;
2748;SDS011;1382;52.142;11.618;2022-07-23T00:18:31;11.00;;;9.10;;
2748;SDS011;1382;52.142;11.618;2022-07-23T00:20:58;9.80;;;8.10;;
2748;SDS011;1382;52.142;11.618;2022-07-23T00:23:25;10.27;;;8.47;;
2748;SDS011;1382;52.142;11.618;2022-07-23T00:25:52;11.40;;;7.90;;
2748;SDS011;1382;52.142;11.618;2022-07-23T00:28:20;18.10;;;8.97;;
2748;SDS011;1382;52.142;11.618;2022-07-23T00:30:47;10.27;;;7.93;;
2748;SDS011;1382;52.142;11.618;2022-07-23T00:33:14;8.70;;;7.80;;
2748;SDS011;1382;52.142;11.618;2022-07-23T00:35:41;10.87;;;7.63;;
2748;SDS011;1382;52.142;11.618;2022-07-23T00:38:08;9.13;;;6.93;;
2748;SDS011;1382;52.142;11.618;2022-07-23T00:40:35;10.43;;;8.33;;
2748;SDS011;1382;52.142;11.618;2022-07-23T00:43:03;10.50;;;8.40;;
2748;SDS011;1382;52.142;11.618;2022-07-23T00:45:32;10.97;;;8.00;;
2748;SDS011;1382;52.142;11.618;2022-07-23T00:47:58;12.93;;;8.20;;
2748;SDS011;1382;52.142;11.618;2022-07-23T00:50:26;7.43;;;6.67;;
2748;SDS011;1382;52.142;11.618;2022-07-23T00:52:53;9.20;;;8.10;;
2748;SDS011;1382;52.142;11.618;2022-07-23T00:55:21;12.70;;;8.37;;
2748;SDS011;1382;52.142;11.618;2022-07-23T00:57:47;13.60;;;8.73;;
2748;SDS011;1382;52.142;11.618;2022-07-23T01:00:16;15.23;;;8.77;;
2748;SDS011;1382;52.142;11.618;2022-07-23T01:02:44;12.10;;;8.27;;
2748;SDS011;1382;52.142;11.618;2022-07-23T01:05:13;15.63;;;11.03;;
2748;SDS011;1382;52.142;11.618;2022-07-23T01:07:41;10.43;;;8.40;;
2748;SDS011;1382;52.142;11.618;2022-07-23T01:10:09;11.97;;;7.97;;
2748;SDS011;1382;52.142;11.618;2022-07-23T01:12:38;10.50;;;7.90;;
2748;SDS011;1382;52.142;11.618;2022-07-23T01:15:05;9.37;;;8.30;;
2748;SDS011;1382;52.142;11.618;2022-07-23T01:17:32;10.83;;;7.70;;
2748;SDS011;1382;52.142;11.618;2022-07-23T01:20:00;12.50;;;8.93;;
2748;SDS011;1382;52.142;11.618;2022-07-23T01:22:29;11.47;;;9.30;;
2748;SDS011;1382;52.142;11.618;2022-07-23T01:24:56;12.50;;;7.40;;
2748;SDS011;1382;52.142;11.618;2022-07-23T01:27:22;10.70;;;7.80;;
2748;SDS011;1382;52.142;11.618;2022-07-23T01:29:49;8.60;;;7.20;;
2748;SDS011;1382;52.142;11.618;2022-07-23T01:32:16;10.13;;;8.57;;
2748;SDS011;1382;52.142;11.618;2022-07-23T01:34:42;13.00;;;9.57;;
2748;SDS011;1382;52.142;11.618;2022-07-23T01:37:09;10.17;;;8.33;;
2748;SDS011;1382;52.142;11.618;2022-07-23T01:39:37;10.27;;;8.67;;
2748;SDS011;1382;52.142;11.618;2022-07-23T01:42:04;10.20;;;8.10;;
2748;SDS011;1382;52.142;11.618;2022-07-23T01:44:31;8.37;;;7.50;;
2748;SDS011;1382;52.142;11.618;2022-07-23T01:46:58;9.43;;;7.77;;
2748;SDS011;1382;52.142;11.618;2022-07-23T01:49:25;12.93;;;7.03;;
2748;SDS011;1382;52.142;11.618;2022-07-23T01:51:51;7.77;;;6.80;;
2748;SDS011;1382;52.142;11.618;2022-07-23T01:54:18;8.50;;;7.37;;
2748;SDS011;1382;52.142;11.618;2022-07-23T01:56:46;8.60;;;6.90;;
2748;SDS011;1382;52.142;11.618;2022-07-23T01:59:13;14.47;;;8.00;;
2748;SDS011;1382;52.142;11.618;2022-07-23T02:01:39;7.40;;;6.57;;
2748;SDS011;1382;52.142;11.618;2022-07-23T02:04:06;9.00;;;6.57;;
2748;SDS011;1382;52.142;11.618;2022-07-23T02:06:33;7.57;;;6.73;;
2748;SDS011;1382;52.142;11.618;2022-07-23T02:09:00;7.77;;;6.90;;
2748;SDS011;1382;52.142;11.618;2022-07-23T02:11:27;8.67;;;7.50;;
2748;SDS011;1382;52.142;11.618;2022-07-23T02:13:55;13.27;;;8.00;;
2748;SDS011;1382;52.142;11.618;2022-07-23T02:16:22;7.30;;;6.37;;
2748;SDS011;1382;52.142;11.618;2022-07-23T02:18:49;7.97;;;7.17;;
2748;SDS011;1382;52.142;11.618;2022-07-23T02:21:17;9.23;;;7.40;;
2748;SDS011;1382;52.142;11.618;2022-07-23T02:23:43;8.53;;;6.77;;
2748;SDS011;1382;52.142;11.618;2022-07-23T02:26:10;9.97;;;6.90;;
2748;SDS011;1382;52.142;11.618;2022-07-23T02:28:43;6.40;;;5.80;;
2748;SDS011;1382;52.142;11.618;2022-07-23T02:31:11;9.77;;;7.33;;
2748;SDS011;1382;52.142;11.618;2022-07-23T02:33:38;6.70;;;6.00;;
2748;SDS011;1382;52.142;11.618;2022-07-23T02:36:05;12.17;;;6.40;;
2748;SDS011;1382;52.142;11.618;2022-07-23T02:38:32;6.40;;;5.70;;
2748;SDS011;1382;52.142;11.618;2022-07-23T02:40:59;9.13;;;7.67;;
2748;SDS011;1382;52.142;11.618;2022-07-23T02:43:25;7.37;;;5.97;;
2748;SDS011;1382;52.142;11.618;2022-07-23T02:45:52;13.93;;;8.37;;
2748;SDS011;1382;52.142;11.618;2022-07-23T02:48:20;10.70;;;7.37;;
2748;SDS011;1382;52.142;11.618;2022-07-23T02:50:47;9.90;;;7.33;;
2748;SDS011;1382;52.142;11.618;2022-07-23T02:53:14;8.33;;;7.50;;
2748;SDS011;1382;52.142;11.618;2022-07-23T02:55:40;11.67;;;8.20;;
2748;SDS011;1382;52.142;11.618;2022-07-23T02:58:08;9.03;;;8.13;;
2748;SDS011;1382;52.142;11.618;2022-07-23T03:00:34;15.97;;;7.97;;
2748;SDS011;1382;52.142;11.618;2022-07-23T03:03:01;8.00;;;6.03;;
2748;SDS011;1382;52.142;11.618;2022-07-23T03:05:29;8.00;;;6.13;;
2748;SDS011;1382;52.142;11.618;2022-07-23T03:07:56;8.53;;;6.97;;
2748;SDS011;1382;52.142;11.618;2022-07-23T03:10:23;12.00;;;6.60;;
2748;SDS011;1382;52.142;11.618;2022-07-23T03:12:50;7.73;;;6.93;;
2748;SDS011;1382;52.142;11.618;2022-07-23T03:15:16;8.13;;;7.20;;
2748;SDS011;1382;52.142;11.618;2022-07-23T03:17:43;9.83;;;8.63;;
2748;SDS011;1382;52.142;11.618;2022-07-23T03:20:10;9.83;;;7.43;;
2748;SDS011;1382;52.142;11.618;2022-07-23T03:22:38;11.70;;;6.03;;
2748;SDS011;1382;52.142;11.618;2022-07-23T03:25:05;11.50;;;8.30;;
2748;SDS011;1382;52.142;11.618;2022-07-23T03:27:33;10.10;;;8.37;;
2748;SDS011;1382;52.142;11.618;2022-07-23T03:30:00;8.67;;;7.57;;
2748;SDS011;1382;52.142;11.618;2022-07-23T03:32:27;8.63;;;7.47;;
2748;SDS011;1382;52.142;11.618;2022-07-23T03:34:53;11.93;;;7.20;;
2748;SDS011;1382;52.142;11.618;2022-07-23T03:37:20;8.60;;;6.83;;
2748;SDS011;1382;52.142;11.618;2022-07-23T03:39:48;8.27;;;7.47;;
2748;SDS011;1382;52.142;11.618;2022-07-23T03:42:15;9.20;;;7.90;;
2748;SDS011;1382;52.142;11.618;2022-07-23T03:44:42;20.20;;;10.60;;
2748;SDS011;1382;52.142;11.618;2022-07-23T03:47:09;12.00;;;10.07;;
2748;SDS011;1382;52.142;11.618;2022-07-23T03:49:35;11.03;;;8.23;;
2748;SDS011;1382;52.142;11.618;2022-07-23T03:52:02;10.77;;;9.17;;
2748;SDS011;1382;52.142;11.618;2022-07-23T03:54:29;10.30;;;8.97;;
2748;SDS011;1382;52.142;11.618;2022-07-23T03:56:57;8.17;;;7.13;;
2748;SDS011;1382;52.142;11.618;2022-07-23T03:59:24;10.07;;;7.90;;
2748;SDS011;1382;52.142;11.618;2022-07-23T04:01:51;10.40;;;8.23;;
2748;SDS011;1382;52.142;11.618;2022-07-23T04:04:17;12.60;;;9.00;;
2748;SDS011;1382;52.142;11.618;2022-07-23T04:06:44;12.93;;;9.33;;
2748;SDS011;1382;52.142;11.618;2022-07-23T04:09:11;15.70;;;9.83;;
2748;SDS011;1382;52.142;11.618;2022-07-23T04:11:38;9.83;;;7.83;;
2748;SDS011;1382;52.142;11.618;2022-07-23T04:14:06;14.37;;;10.23;;
2748;SDS011;1382;52.142;11.618;2022-07-23T04:16:32;10.17;;;8.83;;
2748;SDS011;1382;52.142;11.618;2022-07-23T04:18:59;15.27;;;9.47;;
2748;SDS011;1382;52.142;11.618;2022-07-23T04:21:26;9.93;;;8.87;;
2748;SDS011;1382;52.142;11.618;2022-07-23T04:23:53;10.87;;;9.20;;
2748;SDS011;1382;52.142;11.618;2022-07-23T04:26:20;16.67;;;9.53;;
2748;SDS011;1382;52.142;11.618;2022-07-23T04:28:47;10.67;;;7.47;;
2748;SDS011;1382;52.142;11.618;2022-07-23T04:31:15;9.43;;;7.60;;
2748;SDS011;1382;52.142;11.618;2022-07-23T04:33:42;15.63;;;9.40;;
2748;SDS011;1382;52.142;11.618;2022-07-23T04:36:09;10.87;;;9.67;;
2748;SDS011;1382;52.142;11.618;2022-07-23T04:38:36;11.13;;;7.27;;
2748;SDS011;1382;52.142;11.618;2022-07-23T04:41:03;9.80;;;7.97;;
2748;SDS011;1382;52.142;11.618;2022-07-23T04:43:29;9.23;;;7.70;;
2748;SDS011;1382;52.142;11.618;2022-07-23T04:45:56;10.60;;;7.90;;
2748;SDS011;1382;52.142;11.618;2022-07-23T04:48:24;10.30;;;7.27;;
2748;SDS011;1382;52.142;11.618;2022-07-23T04:50:53;7.97;;;7.10;;
2748;SDS011;1382;52.142;11.618;2022-07-23T04:53:20;7.60;;;6.47;;
2748;SDS011;1382;52.142;11.618;2022-07-23T04:55:46;10.80;;;7.13;;
2748;SDS011;1382;52.142;11.618;2022-07-23T04:58:13;10.53;;;7.13;;
2748;SDS011;1382;52.142;11.618;2022-07-23T05:00:40;8.53;;;7.73;;
2748;SDS011;1382;52.142;11.618;2022-07-23T05:03:07;12.87;;;9.17;;
2748;SDS011;1382;52.142;11.618;2022-07-23T05:05:35;11.10;;;8.57;;
2748;SDS011;1382;52.142;11.618;2022-07-23T05:08:01;10.50;;;8.40;;
2748;SDS011;1382;52.142;11.618;2022-07-23T05:10:28;8.03;;;6.57;;
2748;SDS011;1382;52.142;11.618;2022-07-23T05:12:55;7.77;;;6.97;;
2748;SDS011;1382;52.142;11.618;2022-07-23T05:15:23;10.00;;;8.50;;
2748;SDS011;1382;52.142;11.618;2022-07-23T05:17:50;11.40;;;9.33;;
2748;SDS011;1382;52.142;11.618;2022-07-23T05:20:17;13.70;;;9.90;;
2748;SDS011;1382;52.142;11.618;2022-07-23T05:22:45;15.20;;;10.50;;
2748;SDS011;1382;52.142;11.618;2022-07-23T05:25:12;12.27;;;9.40;;
2748;SDS011;1382;52.142;11.618;2022-07-23T05:27:38;12.27;;;9.23;;
2748;SDS011;1382;52.142;11.618;2022-07-23T05:30:06;10.70;;;8.53;;
2748;SDS011;1382;52.142;11.618;2022-07-23T05:32:33;10.60;;;8.60;;
2748;SDS011;1382;52.142;11.618;2022-07-23T05:35:00;15.60;;;9.27;;
2748;SDS011;1382;52.142;11.618;2022-07-23T05:37:26;12.50;;;8.77;;
2748;SDS011;1382;52.142;11.618;2022-07-23T05:39:54;12.53;;;7.40;;
2748;SDS011;1382;52.142;11.618;2022-07-23T05:42:21;12.87;;;8.90;;
2748;SDS011;1382;52.142;11.618;2022-07-23T05:44:48;13.70;;;8.47;;
2748;SDS011;1382;52.142;11.618;2022-07-23T05:47:14;15.57;;;8.77;;
2748;SDS011;1382;52.142;11.618;2022-07-23T05:49:41;9.30;;;7.97;;
2748;SDS011;1382;52.142;11.618;2022-07-23T05:52:08;12.37;;;9.60;;
2748;SDS011;1382;52.142;11.618;2022-07-23T05:54:35;14.83;;;10.13;;
2748;SDS011;1382;52.142;11.618;2022-07-23T05:57:03;8.20;;;6.50;;
2748;SDS011;1382;52.142;11.618;2022-07-23T05:59:30;11.50;;;8.40;;
2748;SDS011;1382;52.142;11.618;2022-07-23T06:01:57;9.30;;;6.97;;
2748;SDS011;1382;52.142;11.618;2022-07-23T06:04:24;9.67;;;5.40;;
2748;SDS011;1382;52.142;11.618;2022-07-23T06:06:50;8.70;;;6.40;;
2748;SDS011;1382;52.142;11.618;2022-07-23T06:09:17;9.50;;;7.10;;
2748;SDS011;1382;52.142;11.618;2022-07-23T06:11:44;9.13;;;6.63;;
2748;SDS011;1382;52.142;11.618;2022-07-23T06:14:12;11.23;;;6.23;;
2748;SDS011;1382;52.142;11.618;2022-07-23T06:16:39;14.17;;;8.90;;
2748;SDS011;1382;52.142;11.618;2022-07-23T06:19:05;11.57;;;8.67;;
2748;SDS011;1382;52.142;11.618;2022-07-23T06:21:32;8.30;;;7.03;;
2748;SDS011;1382;52.142;11.618;2022-07-23T06:24:14;15.60;;;8.07;;
2748;SDS011;1382;52.142;11.618;2022-07-23T06:26:41;12.00;;;8.00;;
2748;SDS011;1382;52.142;11.618;2022-07-23T06:29:08;9.97;;;9.00;;
2748;SDS011;1382;52.142;11.618;2022-07-23T06:31:36;11.73;;;9.67;;
2748;SDS011;1382;52.142;11.618;2022-07-23T06:34:03;12.23;;;8.97;;
2748;SDS011;1382;52.142;11.618;2022-07-23T06:36:29;11.60;;;8.50;;
2748;SDS011;1382;52.142;11.618;2022-07-23T06:38:56;17.40;;;8.63;;
2748;SDS011;1382;52.142;11.618;2022-07-23T06:41:23;14.07;;;9.80;;
2748;SDS011;1382;52.142;11.618;2022-07-23T06:43:50;9.83;;;8.83;;
2748;SDS011;1382;52.142;11.618;2022-07-23T06:46:16;10.80;;;7.87;;
2748;SDS011;1382;52.142;11.618;2022-07-23T06:48:45;14.43;;;9.13;;
2748;SDS011;1382;52.142;11.618;2022-07-23T06:51:11;8.40;;;7.50;;
2748;SDS011;1382;52.142;11.618;2022-07-23T06:53:38;12.97;;;9.73;;
2748;SDS011;1382;52.142;11.618;2022-07-23T06:56:05;10.87;;;7.97;;
2748;SDS011;1382;52.142;11.618;2022-07-23T06:58:31;9.30;;;8.10;;
2748;SDS011;1382;52.142;11.618;2022-07-23T07:00:58;9.77;;;8.23;;
2748;SDS011;1382;52.142;11.618;2022-07-23T07:03:25;21.00;;;9.47;;
2748;SDS011;1382;52.142;11.618;2022-07-23T07:05:53;12.53;;;7.87;;
2748;SDS011;1382;52.142;11.618;2022-07-23T07:08:20;15.17;;;8.80;;
2748;SDS011;1382;52.142;11.618;2022-07-23T07:10:46;14.13;;;8.43;;
2748;SDS011;1382;52.142;11.618;2022-07-23T07:13:13;11.50;;;8.23;;
2748;SDS011;1382;52.142;11.618;2022-07-23T07:15:40;10.13;;;7.87;;
2748;SDS011;1382;52.142;11.618;2022-07-23T07:18:07;9.57;;;7.43;;
2748;SDS011;1382;52.142;11.618;2022-07-23T07:20:34;14.93;;;7.50;;
2748;SDS011;1382;52.142;11.618;2022-07-23T07:23:02;8.57;;;6.80;;
2748;SDS011;1382;52.142;11.618;2022-07-23T07:25:29;10.93;;;7.43;;
2748;SDS011;1382;52.142;11.618;2022-07-23T07:27:56;10.33;;;6.37;;
2748;SDS011;1382;52.142;11.618;2022-07-23T07:30:23;10.23;;;7.43;;
2748;SDS011;1382;52.142;11.618;2022-07-23T07:32:49;10.53;;;7.80;;
2748;SDS011;1382;52.142;11.618;2022-07-23T07:35:22;11.83;;;7.97;;
2748;SDS011;1382;52.142;11.618;2022-07-23T07:37:49;10.00;;;7.27;;
2748;SDS011;1382;52.142;11.618;2022-07-23T07:40:17;8.77;;;7.50;;
2748;SDS011;1382;52.142;11.618;2022-07-23T07:42:44;12.23;;;8.80;;
2748;SDS011;1382;52.142;11.618;2022-07-23T07:45:11;12.30;;;8.20;;
2748;SDS011;1382;52.142;11.618;2022-07-23T07:47:38;11.80;;;7.13;;
2748;SDS011;1382;52.142;11.618;2022-07-23T07:50:05;9.90;;;7.40;;
2748;SDS011;1382;52.142;11.618;2022-07-23T07:52:32;9.70;;;7.73;;
2748;SDS011;1382;52.142;11.618;2022-07-23T07:54:59;11.20;;;7.93;;
2748;SDS011;1382;52.142;11.618;2022-07-23T07:57:27;13.63;;;9.00;;
2748;SDS011;1382;52.142;11.618;2022-07-23T07:59:57;10.20;;;8.43;;
2748;SDS011;1382;52.142;11.618;2022-07-23T08:02:38;11.90;;;7.70;;
2748;SDS011;1382;52.142;11.618;2022-07-23T08:05:07;19.83;;;9.30;;
2748;SDS011;1382;52.142;11.618;2022-07-23T08:07:34;13.63;;;9.60;;
2748;SDS011;1382;52.142;11.618;2022-07-23T08:10:01;11.20;;;8.23;;
2748;SDS011;1382;52.142;11.618;2022-07-23T08:12:29;11.07;;;8.97;;
2748;SDS011;1382;52.142;11.618;2022-07-23T08:15:04;9.53;;;8.50;;
2748;SDS011;1382;52.142;11.618;2022-07-23T08:17:38;11.00;;;8.50;;
2748;SDS011;1382;52.142;11.618;2022-07-23T08:20:07;12.70;;;7.90;;
2748;SDS011;1382;52.142;11.618;2022-07-23T08:22:46;9.53;;;8.00;;
2748;SDS011;1382;52.142;11.618;2022-07-23T08:25:14;11.20;;;9.27;;
2748;SDS011;1382;52.142;11.618;2022-07-23T08:27:43;11.70;;;10.00;;
2748;SDS011;1382;52.142;11.618;2022-07-23T08:30:10;10.70;;;6.30;;
2748;SDS011;1382;52.142;11.618;2022-07-23T08:32:50;12.93;;;9.07;;
2748;SDS011;1382;52.142;11.618;2022-07-23T08:35:20;9.63;;;8.47;;
2748;SDS011;1382;52.142;11.618;2022-07-23T08:37:48;9.67;;;8.40;;
2748;SDS011;1382;52.142;11.618;2022-07-23T08:40:15;15.17;;;8.87;;
2748;SDS011;1382;52.142;11.618;2022-07-23T08:42:43;15.10;;;8.77;;
2748;SDS011;1382;52.142;11.618;2022-07-23T08:45:13;12.53;;;8.63;;
2748;SDS011;1382;52.142;11.618;2022-07-23T08:47:42;12.50;;;7.67;;
2748;SDS011;1382;52.142;11.618;2022-07-23T08:50:17;9.80;;;7.83;;
2748;SDS011;1382;52.142;11.618;2022-07-23T08:52:45;11.37;;;8.40;;
2748;SDS011;1382;52.142;11.618;2022-07-23T08:55:12;11.30;;;8.33;;
2748;SDS011;1382;52.142;11.618;2022-07-23T08:57:39;9.40;;;8.50;;
2748;SDS011;1382;52.142;11.618;2022-07-23T09:00:08;9.10;;;7.77;;
2748;SDS011;1382;52.142;11.618;2022-07-23T09:02:39;10.67;;;7.13;;
2748;SDS011;1382;52.142;11.618;2022-07-23T09:05:09;17.53;;;9.50;;
2748;SDS011;1382;52.142;11.618;2022-07-23T09:07:36;16.43;;;9.33;;
2748;SDS011;1382;52.142;11.618;2022-07-23T09:10:05;8.80;;;7.60;;
2748;SDS011;1382;52.142;11.618;2022-07-23T09:12:33;13.47;;;6.20;;
2748;SDS011;1382;52.142;11.618;2022-07-23T09:15:04;10.00;;;6.70;;
2748;SDS011;1382;52.142;11.618;2022-07-23T09:17:41;9.47;;;6.70;;
2748;SDS011;1382;52.142;11.618;2022-07-23T09:20:09;7.30;;;5.63;;
2748;SDS011;1382;52.142;11.618;2022-07-23T09:22:40;10.33;;;6.50;;
2748;SDS011;1382;52.142;11.618;2022-07-23T09:25:10;6.90;;;4.90;;
2748;SDS011;1382;52.142;11.618;2022-07-23T09:27:45;8.73;;;5.40;;
2748;SDS011;1382;52.142;11.618;2022-07-23T09:30:20;8.20;;;5.40;;
2748;SDS011;1382;52.142;11.618;2022-07-23T09:35:45;10.80;;;4.87;;
2748;SDS011;1382;52.142;11.618;2022-07-23T09:38:13;54.70;;;20.93;;
2748;SDS011;1382;52.142;11.618;2022-07-23T09:40:40;11.30;;;5.70;;
2748;SDS011;1382;52.142;11.618;2022-07-23T09:43:07;11.80;;;6.40;;
2748;SDS011;1382;52.142;11.618;2022-07-23T09:45:34;6.93;;;5.13;;
2748;SDS011;1382;52.142;11.618;2022-07-23T09:48:11;5.90;;;4.30;;
2748;SDS011;1382;52.142;11.618;2022-07-23T09:50:40;7.10;;;5.60;;
2748;SDS011;1382;52.142;11.618;2022-07-23T09:53:08;5.90;;;5.27;;
2748;SDS011;1382;52.142;11.618;2022-07-23T09:55:35;7.40;;;4.17;;
2748;SDS011;1382;52.142;11.618;2022-07-23T09:58:03;6.80;;;5.30;;
2748;SDS011;1382;52.142;11.618;2022-07-23T10:00:30;12.83;;;5.10;;
2748;SDS011;1382;52.142;11.618;2022-07-23T10:02:58;6.07;;;4.73;;
2748;SDS011;1382;52.142;11.618;2022-07-23T10:05:27;9.90;;;5.93;;
2748;SDS011;1382;52.142;11.618;2022-07-23T10:07:55;10.40;;;5.83;;
2748;SDS011;1382;52.142;11.618;2022-07-23T10:10:22;6.10;;;5.30;;
2748;SDS011;1382;52.142;11.618;2022-07-23T10:12:52;5.60;;;5.00;;
2748;SDS011;1382;52.142;11.618;2022-07-23T10:15:20;7.43;;;5.53;;
2748;SDS011;1382;52.142;11.618;2022-07-23T10:17:47;8.10;;;5.30;;
2748;SDS011;1382;52.142;11.618;2022-07-23T10:20:15;7.00;;;5.43;;
2748;SDS011;1382;52.142;11.618;2022-07-23T10:22:44;7.63;;;5.30;;
2748;SDS011;1382;52.142;11.618;2022-07-23T10:25:21;5.17;;;4.63;;
2748;SDS011;1382;52.142;11.618;2022-07-23T10:27:59;8.10;;;4.73;;
2748;SDS011;1382;52.142;11.618;2022-07-23T10:30:40;5.33;;;4.60;;
2748;SDS011;1382;52.142;11.618;2022-07-23T10:33:17;7.50;;;4.67;;
2748;SDS011;1382;52.142;11.618;2022-07-23T10:35:54;5.30;;;4.80;;
2748;SDS011;1382;52.142;11.618;2022-07-23T10:38:27;7.33;;;5.63;;
2748;SDS011;1382;52.142;11.618;2022-07-23T10:40:59;5.97;;;5.37;;
2748;SDS011;1382;52.142;11.618;2022-07-23T10:43:27;10.33;;;5.40;;
2748;SDS011;1382;52.142;11.618;2022-07-23T10:45:56;8.87;;;4.90;;
2748;SDS011;1382;52.142;11.618;2022-07-23T10:54:45;5.30;;;4.80;;
2748;SDS011;1382;52.142;11.618;2022-07-23T10:57:13;7.10;;;4.70;;
2748;SDS011;1382;52.142;11.618;2022-07-23T11:02:38;6.00;;;4.50;;
2748;SDS011;1382;52.142;11.618;2022-07-23T11:05:07;5.33;;;4.83;;
2748;SDS011;1382;52.142;11.618;2022-07-23T11:07:35;5.90;;;5.37;;
2748;SDS011;1382;52.142;11.618;2022-07-23T11:10:04;5.67;;;4.43;;
2748;SDS011;1382;52.142;11.618;2022-07-23T11:12:32;9.00;;;5.10;;
2748;SDS011;1382;52.142;11.618;2022-07-23T11:15:01;6.13;;;4.30;;
2748;SDS011;1382;52.142;11.618;2022-07-23T11:17:30;5.00;;;4.50;;
2748;SDS011;1382;52.142;11.618;2022-07-23T11:20:12;5.30;;;4.30;;
2748;SDS011;1382;52.142;11.618;2022-07-23T11:22:46;4.73;;;3.73;;
2748;SDS011;1382;52.142;11.618;2022-07-23T11:25:30;4.03;;;3.63;;
2748;SDS011;1382;52.142;11.618;2022-07-23T11:28:08;4.73;;;4.17;;
2748;SDS011;1382;52.142;11.618;2022-07-23T11:30:38;4.53;;;3.43;;
2748;SDS011;1382;52.142;11.618;2022-07-23T11:33:19;4.33;;;3.90;;
2748;SDS011;1382;52.142;11.618;2022-07-23T11:35:48;6.77;;;3.87;;
2748;SDS011;1382;52.142;11.618;2022-07-23T11:38:25;5.47;;;4.43;;
2748;SDS011;1382;52.142;11.618;2022-07-23T11:40:53;8.37;;;3.90;;
2748;SDS011;1382;52.142;11.618;2022-07-23T11:43:22;4.30;;;3.90;;
2748;SDS011;1382;52.142;11.618;2022-07-23T11:45:49;3.80;;;3.40;;
2748;SDS011;1382;52.142;11.618;2022-07-23T11:48:19;4.47;;;3.13;;
2748;SDS011;1382;52.142;11.618;2022-07-23T11:50:47;4.57;;;3.60;;
2748;SDS011;1382;52.142;11.618;2022-07-23T11:53:20;3.70;;;3.30;;
2748;SDS011;1382;52.142;11.618;2022-07-23T11:55:50;3.80;;;3.40;;
2748;SDS011;1382;52.142;11.618;2022-07-23T11:58:18;5.13;;;3.70;;
2748;SDS011;1382;52.142;11.618;2022-07-23T12:00:45;6.93;;;3.47;;
2748;SDS011;1382;52.142;11.618;2022-07-23T12:03:12;5.70;;;3.10;;
2748;SDS011;1382;52.142;11.618;2022-07-23T12:05:40;3.70;;;2.97;;
2748;SDS011;1382;52.142;11.618;2022-07-23T12:08:08;7.73;;;2.90;;
2748;SDS011;1382;52.142;11.618;2022-07-23T12:10:36;3.10;;;2.67;;
2748;SDS011;1382;52.142;11.618;2022-07-23T12:13:06;6.50;;;3.50;;
2748;SDS011;1382;52.142;11.618;2022-07-23T12:15:35;3.33;;;2.77;;
2748;SDS011;1382;52.142;11.618;2022-07-23T12:18:03;3.30;;;2.70;;
2748;SDS011;1382;52.142;11.618;2022-07-23T12:20:31;6.40;;;3.40;;
2748;SDS011;1382;52.142;11.618;2022-07-23T12:23:01;5.87;;;3.00;;
2748;SDS011;1382;52.142;11.618;2022-07-23T12:25:31;3.90;;;2.40;;
2748;SDS011;1382;52.142;11.618;2022-07-23T12:28:00;3.40;;;2.60;;
2748;SDS011;1382;52.142;11.618;2022-07-23T12:30:32;3.50;;;2.87;;
2748;SDS011;1382;52.142;11.618;2022-07-23T12:33:00;4.90;;;2.70;;
2748;SDS011;1382;52.142;11.618;2022-07-23T12:35:31;2.97;;;2.70;;
2748;SDS011;1382;52.142;11.618;2022-07-23T12:38:01;3.60;;;3.30;;
2748;SDS011;1382;52.142;11.618;2022-07-23T12:40:31;3.10;;;2.80;;
2748;SDS011;1382;52.142;11.618;2022-07-23T12:42:59;3.40;;;2.43;;
2748;SDS011;1382;52.142;11.618;2022-07-23T12:45:28;6.17;;;2.93;;
2748;SDS011;1382;52.142;11.618;2022-07-23T12:48:14;2.87;;;2.30;;
2748;SDS011;1382;52.142;11.618;2022-07-23T12:50:54;3.97;;;2.07;;
2748;SDS011;1382;52.142;11.618;2022-07-23T12:53:23;4.83;;;2.27;;
2748;SDS011;1382;52.142;11.618;2022-07-23T12:55:56;3.70;;;2.10;;
2748;SDS011;1382;52.142;11.618;2022-07-23T12:58:46;2.27;;;1.70;;
2748;SDS011;1382;52.142;11.618;2022-07-23T13:01:27;1.93;;;1.70;;
2748;SDS011;1382;52.142;11.618;2022-07-23T13:03:56;3.17;;;2.33;;
2748;SDS011;1382;52.142;11.618;2022-07-23T13:06:25;5.77;;;2.87;;
2748;SDS011;1382;52.142;11.618;2022-07-23T13:08:53;4.73;;;2.20;;
2748;SDS011;1382;52.142;11.618;2022-07-23T13:11:19;4.10;;;2.40;;
2748;SDS011;1382;52.142;11.618;2022-07-23T13:13:46;2.50;;;2.30;;
2748;SDS011;1382;52.142;11.618;2022-07-23T13:16:13;3.27;;;3.00;;
2748;SDS011;1382;52.142;11.618;2022-07-23T13:18:42;3.97;;;2.50;;
2748;SDS011;1382;52.142;11.618;2022-07-23T13:21:08;2.87;;;2.53;;
2748;SDS011;1382;52.142;11.618;2022-07-23T13:23:35;5.17;;;3.40;;
2748;SDS011;1382;52.142;11.618;2022-07-23T13:26:02;5.27;;;2.90;;
2748;SDS011;1382;52.142;11.618;2022-07-23T13:28:29;7.93;;;3.20;;
2748;SDS011;1382;52.142;11.618;2022-07-23T13:30:56;3.20;;;2.90;;
2748;SDS011;1382;52.142;11.618;2022-07-23T13:33:23;3.13;;;2.83;;
2748;SDS011;1382;52.142;11.618;2022-07-23T13:35:54;3.70;;;2.40;;
2748;SDS011;1382;52.142;11.618;2022-07-23T13:38:21;4.30;;;3.00;;
2748;SDS011;1382;52.142;11.618;2022-07-23T13:40:49;3.27;;;2.97;;
2748;SDS011;1382;52.142;11.618;2022-07-23T13:43:17;4.47;;;2.70;;
2748;SDS011;1382;52.142;11.618;2022-07-23T13:45:48;5.00;;;3.23;;
2748;SDS011;1382;52.142;11.618;2022-07-23T13:48:16;4.57;;;3.30;;
2748;SDS011;1382;52.142;11.618;2022-07-23T13:50:45;4.10;;;3.13;;
2748;SDS011;1382;52.142;11.618;2022-07-23T13:53:16;4.00;;;2.63;;
2748;SDS011;1382;52.142;11.618;2022-07-23T13:55:44;2.33;;;2.13;;
2748;SDS011;1382;52.142;11.618;2022-07-23T13:58:14;5.73;;;2.10;;
2748;SDS011;1382;52.142;11.618;2022-07-23T14:00:42;4.33;;;2.00;;
2748;SDS011;1382;52.142;11.618;2022-07-23T14:03:18;3.67;;;2.30;;
2748;SDS011;1382;52.142;11.618;2022-07-23T14:05:47;5.00;;;2.33;;
2748;SDS011;1382;52.142;11.618;2022-07-23T14:08:15;3.83;;;2.23;;
2748;SDS011;1382;52.142;11.618;2022-07-23T14:10:42;3.33;;;2.30;;
2748;SDS011;1382;52.142;11.618;2022-07-23T14:13:09;2.57;;;2.20;;
2748;SDS011;1382;52.142;11.618;2022-07-23T14:15:35;2.43;;;1.83;;
2748;SDS011;1382;52.142;11.618;2022-07-23T14:18:02;4.60;;;2.20;;
2748;SDS011;1382;52.142;11.618;2022-07-23T14:20:30;3.17;;;2.50;;
2748;SDS011;1382;52.142;11.618;2022-07-23T14:22:57;7.10;;;2.40;;
2748;SDS011;1382;52.142;11.618;2022-07-23T14:25:27;4.83;;;2.20;;
2748;SDS011;1382;52.142;11.618;2022-07-23T14:27:54;2.80;;;2.50;;
2748;SDS011;1382;52.142;11.618;2022-07-23T14:30:21;4.13;;;2.50;;
2748;SDS011;1382;52.142;11.618;2022-07-23T14:32:48;2.30;;;2.10;;
2748;SDS011;1382;52.142;11.618;2022-07-23T14:35:15;3.83;;;1.80;;
2748;SDS011;1382;52.142;11.618;2022-07-23T14:37:45;2.13;;;1.97;;
2748;SDS011;1382;52.142;11.618;2022-07-23T14:40:11;6.10;;;1.80;;
2748;SDS011;1382;52.142;11.618;2022-07-23T14:42:40;3.70;;;2.00;;
2748;SDS011;1382;52.142;11.618;2022-07-23T14:45:08;2.20;;;2.00;;
2748;SDS011;1382;52.142;11.618;2022-07-23T14:47:36;2.30;;;2.10;;
2748;SDS011;1382;52.142;11.618;2022-07-23T14:50:05;2.90;;;1.63;;
2748;SDS011;1382;52.142;11.618;2022-07-23T14:52:32;4.43;;;1.80;;
2748;SDS011;1382;52.142;11.618;2022-07-23T14:55:00;1.67;;;1.37;;
2748;SDS011;1382;52.142;11.618;2022-07-23T14:57:29;4.03;;;1.60;;
2748;SDS011;1382;52.142;11.618;2022-07-23T14:59:57;2.90;;;1.63;;
2748;SDS011;1382;52.142;11.618;2022-07-23T15:02:24;2.37;;;1.57;;
2748;SDS011;1382;52.142;11.618;2022-07-23T15:04:51;3.40;;;1.30;;
2748;SDS011;1382;52.142;11.618;2022-07-23T15:07:18;2.70;;;1.50;;
2748;SDS011;1382;52.142;11.618;2022-07-23T15:09:46;1.87;;;1.67;;
2748;SDS011;1382;52.142;11.618;2022-07-23T15:12:13;2.70;;;1.77;;
2748;SDS011;1382;52.142;11.618;2022-07-23T15:14:40;8.40;;;1.80;;